createdAt,value
2017-08-23T00:01:24.744Z,8.80
2017-08-23T00:03:52.548Z,8.78
2017-08-23T00:06:20.412Z,8.81
2017-08-23T00:08:48.243Z,8.77
2017-08-23T00:11:16.093Z,8.74
2017-08-23T00:13:43.894Z,8.68
2017-08-23T00:16:11.707Z,8.66
2017-08-23T00:18:39.552Z,8.62
2017-08-23T00:21:07.329Z,8.58
2017-08-23T00:23:35.180Z,8.54
2017-08-23T00:26:02.953Z,8.58
2017-08-23T00:28:30.856Z,8.58
2017-08-23T00:30:58.705Z,8.53
2017-08-23T00:33:26.566Z,8.53
2017-08-23T00:35:54.353Z,8.52
2017-08-23T00:38:22.164Z,8.52
2017-08-23T00:40:49.982Z,8.55
2017-08-23T00:43:17.830Z,8.57
2017-08-23T00:45:45.623Z,8.57
2017-08-23T00:48:13.513Z,8.54
2017-08-23T00:50:41.307Z,8.50
2017-08-23T00:53:09.102Z,8.43
2017-08-23T00:55:36.890Z,8.34
2017-08-23T00:58:04.724Z,8.28
2017-08-23T01:00:32.599Z,8.24
2017-08-23T01:03:00.411Z,8.24
2017-08-23T01:05:28.193Z,8.31
2017-08-23T01:07:56.013Z,8.35
2017-08-23T01:10:23.868Z,8.34
2017-08-23T01:12:51.654Z,8.33
2017-08-23T01:15:19.495Z,8.31
2017-08-23T01:17:47.279Z,8.30
2017-08-23T01:20:15.131Z,8.30
2017-08-23T01:22:42.903Z,8.25
2017-08-23T01:25:10.705Z,8.22
2017-08-23T01:27:38.517Z,8.16
2017-08-23T01:30:06.310Z,8.11
2017-08-23T01:32:34.197Z,8.06
2017-08-23T01:35:02.002Z,8.06
2017-08-23T01:37:29.840Z,8.07
2017-08-23T01:39:57.617Z,8.04
2017-08-23T01:42:25.457Z,8.07
2017-08-23T01:44:53.235Z,8.09
2017-08-23T01:47:21.092Z,8.08
2017-08-23T01:49:48.862Z,8.03
2017-08-23T01:52:16.692Z,8.04
2017-08-23T01:54:44.414Z,8.06
2017-08-23T01:57:12.232Z,8.00
2017-08-23T01:59:40.041Z,7.94
2017-08-23T02:02:07.893Z,7.88
2017-08-23T02:04:35.700Z,7.88
2017-08-23T02:07:03.487Z,7.89
2017-08-23T02:09:31.310Z,7.89
2017-08-23T02:11:59.118Z,7.87
2017-08-23T02:14:26.972Z,7.85
2017-08-23T02:16:54.748Z,7.84
2017-08-23T02:19:22.556Z,7.83
2017-08-23T02:21:50.332Z,7.83
2017-08-23T02:24:18.203Z,7.84
2017-08-23T02:26:46.014Z,7.85
2017-08-23T02:29:13.852Z,7.86
2017-08-23T02:31:41.664Z,7.84
2017-08-23T02:34:09.513Z,7.75
2017-08-23T02:36:37.293Z,7.62
2017-08-23T02:39:05.212Z,7.63
2017-08-23T02:41:33.041Z,7.68
2017-08-23T02:44:00.883Z,7.73
2017-08-23T02:46:28.649Z,7.74
2017-08-23T02:48:56.437Z,7.73
2017-08-23T02:51:24.259Z,7.66
2017-08-23T02:53:51.965Z,7.57
2017-08-23T02:56:19.802Z,7.53
2017-08-23T02:58:47.585Z,7.55
2017-08-23T03:01:15.405Z,7.60
2017-08-23T03:03:43.195Z,7.63
2017-08-23T03:06:11.015Z,7.58
2017-08-23T03:08:38.823Z,7.51
2017-08-23T03:11:06.691Z,7.46
2017-08-23T03:13:34.468Z,7.42
2017-08-23T03:16:02.309Z,7.39
2017-08-23T03:18:30.105Z,7.39
2017-08-23T03:20:57.946Z,7.39
2017-08-23T03:23:25.744Z,7.41
2017-08-23T03:25:53.599Z,7.46
2017-08-23T03:28:21.386Z,7.50
2017-08-23T03:30:49.236Z,7.54
2017-08-23T03:33:17.086Z,7.49
2017-08-23T03:35:44.894Z,7.42
2017-08-23T03:38:12.722Z,7.33
2017-08-23T03:40:40.511Z,7.27
2017-08-23T03:43:08.351Z,7.20
2017-08-23T03:45:36.130Z,7.13
2017-08-23T03:48:03.931Z,7.19
2017-08-23T03:50:31.732Z,7.27
2017-08-23T03:52:59.593Z,7.29
2017-08-23T03:55:27.398Z,7.30
2017-08-23T03:57:55.216Z,7.29
2017-08-23T04:00:23.006Z,7.26
2017-08-23T04:02:50.826Z,7.29
2017-08-23T04:05:18.625Z,7.23
2017-08-23T04:07:46.327Z,7.21
2017-08-23T04:10:14.170Z,7.26
2017-08-23T04:12:41.964Z,7.29
2017-08-23T04:15:09.851Z,7.28
2017-08-23T04:17:37.663Z,7.27
2017-08-23T04:20:05.496Z,7.26
2017-08-23T04:22:33.336Z,7.26
2017-08-23T04:25:01.173Z,7.27
2017-08-23T04:27:28.996Z,7.26
2017-08-23T04:29:56.832Z,7.28
2017-08-23T04:32:24.544Z,7.28
2017-08-23T04:34:52.393Z,7.33
2017-08-23T04:37:20.179Z,7.37
2017-08-23T04:39:47.996Z,7.41
2017-08-23T04:42:15.790Z,7.45
2017-08-23T04:44:43.512Z,7.45
2017-08-23T04:47:11.270Z,7.46
2017-08-23T04:49:38.964Z,7.42
2017-08-23T04:52:06.696Z,7.44
2017-08-23T04:54:34.397Z,7.49
2017-08-23T04:57:02.173Z,7.58
2017-08-23T04:59:29.890Z,7.72
2017-08-23T05:01:57.625Z,7.88
2017-08-23T05:04:25.363Z,8.09
2017-08-23T05:06:53.157Z,8.28
2017-08-23T05:09:20.893Z,8.40
2017-08-23T05:11:48.649Z,8.46
2017-08-23T05:14:16.377Z,8.50
2017-08-23T05:16:44.129Z,8.52
2017-08-23T05:19:11.880Z,8.53
2017-08-23T05:21:39.628Z,8.47
2017-08-23T05:24:07.321Z,8.47
2017-08-23T05:26:35.115Z,8.47
2017-08-23T05:29:02.822Z,8.50
2017-08-23T05:31:30.544Z,8.53
2017-08-23T05:33:58.309Z,8.67
2017-08-23T05:36:26.012Z,8.85
2017-08-23T05:38:53.771Z,9.06
2017-08-23T05:41:21.493Z,9.27
2017-08-23T05:43:49.247Z,9.48
2017-08-23T05:46:16.960Z,9.70
2017-08-23T05:48:44.706Z,9.91
2017-08-23T05:51:12.416Z,10.11
2017-08-23T05:53:40.193Z,10.26
2017-08-23T05:56:07.897Z,10.41
2017-08-23T05:58:35.615Z,10.48
2017-08-23T06:01:03.436Z,10.41
2017-08-23T06:03:31.171Z,10.38
2017-08-23T06:05:58.964Z,10.34
2017-08-23T06:08:26.672Z,10.31
2017-08-23T06:10:54.429Z,10.33
2017-08-23T06:13:22.137Z,10.37
2017-08-23T06:15:49.911Z,10.46
2017-08-23T06:18:17.645Z,10.51
2017-08-23T06:20:45.439Z,10.49
2017-08-23T06:23:13.188Z,10.46
2017-08-23T06:25:40.976Z,10.49
2017-08-23T06:28:08.696Z,10.65
2017-08-23T06:30:36.387Z,10.90
2017-08-23T06:33:04.123Z,11.16
2017-08-23T06:35:31.840Z,11.39
2017-08-23T06:37:59.602Z,11.64
2017-08-23T06:40:27.355Z,11.85
2017-08-23T06:42:55.136Z,12.03
2017-08-23T06:45:22.857Z,12.16
2017-08-23T06:47:50.647Z,12.28
2017-08-23T06:50:18.434Z,12.37
2017-08-23T06:52:46.333Z,12.50
2017-08-23T06:55:14.159Z,12.67
2017-08-23T06:57:41.978Z,12.86
2017-08-23T07:00:09.757Z,13.05
2017-08-23T07:02:37.622Z,13.23
2017-08-23T07:05:05.392Z,13.44
2017-08-23T07:07:33.267Z,13.63
2017-08-23T07:10:01.060Z,13.86
2017-08-23T07:12:28.854Z,14.13
2017-08-23T07:14:56.600Z,14.36
2017-08-23T07:17:24.602Z,14.60
2017-08-23T07:19:52.337Z,14.84
2017-08-23T07:22:20.193Z,14.98
2017-08-23T07:24:47.975Z,15.20
2017-08-23T07:27:15.724Z,15.38
2017-08-23T07:29:43.592Z,15.56
2017-08-23T07:32:11.456Z,15.78
2017-08-23T07:34:39.254Z,15.95
2017-08-23T07:37:07.005Z,16.08
2017-08-23T07:39:34.775Z,16.28
2017-08-23T07:42:05.131Z,16.46
2017-08-23T07:44:32.915Z,16.60
2017-08-23T07:47:00.698Z,16.85
2017-08-23T07:49:28.504Z,17.08
2017-08-23T07:51:56.281Z,17.24
2017-08-23T07:54:24.028Z,17.39
2017-08-23T07:56:51.895Z,17.49
2017-08-23T07:59:19.629Z,17.53
2017-08-23T08:01:47.410Z,17.63
2017-08-23T08:04:15.229Z,17.85
2017-08-23T08:06:43.156Z,17.93
2017-08-23T08:09:10.947Z,17.98
2017-08-23T08:11:38.825Z,18.08
2017-08-23T08:14:06.623Z,18.09
2017-08-23T08:16:34.523Z,18.07
2017-08-23T08:19:02.374Z,18.20
2017-08-23T08:21:30.238Z,18.30
2017-08-23T08:23:58.059Z,18.49
2017-08-23T08:26:25.803Z,18.54
2017-08-23T08:28:53.612Z,18.67
2017-08-23T08:31:21.341Z,18.94
2017-08-23T08:33:49.120Z,18.97
2017-08-23T08:36:16.904Z,18.96
2017-08-23T08:38:44.684Z,19.06
2017-08-23T08:41:12.431Z,19.21
2017-08-23T08:43:40.309Z,19.32
2017-08-23T08:46:08.013Z,19.48
2017-08-23T08:48:35.877Z,19.50
2017-08-23T08:51:03.597Z,19.59
2017-08-23T08:53:31.529Z,19.68
2017-08-23T08:55:59.286Z,19.84
2017-08-23T08:58:27.096Z,19.83
2017-08-23T09:00:54.911Z,19.83
2017-08-23T09:03:22.686Z,19.85
2017-08-23T09:05:50.421Z,19.89
2017-08-23T09:08:18.181Z,20.10
2017-08-23T09:10:46.040Z,20.29
2017-08-23T09:13:13.869Z,20.35
2017-08-23T09:15:41.704Z,20.28
2017-08-23T09:18:09.534Z,20.36
2017-08-23T09:20:37.273Z,20.30
2017-08-23T09:23:05.082Z,20.16
2017-08-23T09:25:32.999Z,20.19
2017-08-23T09:28:00.825Z,20.36
2017-08-23T09:30:28.696Z,20.04
2017-08-23T09:32:56.536Z,19.58
2017-08-23T09:35:24.388Z,19.08
2017-08-23T09:37:52.123Z,18.80
2017-08-23T09:40:19.973Z,18.77
2017-08-23T09:42:47.768Z,18.70
2017-08-23T09:45:15.573Z,18.62
2017-08-23T09:47:43.427Z,18.70
2017-08-23T09:50:11.228Z,19.06
2017-08-23T09:52:39.073Z,19.48
2017-08-23T09:55:06.874Z,19.49
2017-08-23T09:57:34.754Z,19.78
2017-08-23T10:00:02.565Z,20.04
2017-08-23T10:02:30.392Z,20.30
2017-08-23T10:04:59.145Z,20.48
2017-08-23T10:07:26.993Z,20.24
2017-08-23T10:09:54.811Z,19.97
2017-08-23T10:12:22.711Z,19.71
2017-08-23T10:14:50.484Z,19.51
2017-08-23T10:17:18.323Z,19.48
2017-08-23T10:19:46.119Z,19.71
2017-08-23T10:22:13.995Z,19.95
2017-08-23T10:24:41.805Z,19.95
2017-08-23T10:27:09.660Z,19.71
2017-08-23T10:29:37.473Z,19.43
2017-08-23T10:32:05.342Z,19.13
2017-08-23T10:34:33.228Z,18.89
2017-08-23T10:37:01.035Z,18.70
2017-08-23T10:39:28.893Z,18.62
2017-08-23T10:41:56.735Z,18.63
2017-08-23T10:44:24.594Z,18.71
2017-08-23T10:46:52.413Z,18.95
2017-08-23T10:49:20.262Z,19.58
2017-08-23T10:51:48.102Z,20.29
2017-08-23T10:54:15.982Z,21.02
2017-08-23T10:56:43.800Z,21.48
2017-08-23T10:59:11.680Z,21.86
2017-08-23T11:01:39.504Z,22.15
2017-08-23T11:04:07.348Z,22.39
2017-08-23T11:06:35.196Z,22.72
2017-08-23T11:09:03.127Z,22.90
2017-08-23T11:11:30.943Z,22.98
2017-08-23T11:13:59.715Z,23.16
2017-08-23T11:16:27.570Z,23.27
2017-08-23T11:18:55.432Z,22.78
2017-08-23T11:21:23.297Z,22.28
2017-08-23T11:23:51.169Z,22.16
2017-08-23T11:26:19.012Z,22.37
2017-08-23T11:28:46.783Z,22.69
2017-08-23T11:31:15.768Z,23.05
2017-08-23T11:33:43.653Z,23.44
2017-08-23T11:36:11.502Z,23.27
2017-08-23T11:38:39.319Z,23.34
2017-08-23T11:41:07.215Z,23.39
2017-08-23T11:43:35.095Z,23.34
2017-08-23T11:46:02.934Z,23.34
2017-08-23T11:48:30.772Z,23.36
2017-08-23T11:50:58.648Z,23.51
2017-08-23T11:53:26.403Z,23.57
2017-08-23T11:55:54.224Z,23.65
2017-08-23T11:58:22.120Z,22.82
2017-08-23T12:00:49.868Z,22.65
2017-08-23T12:03:17.748Z,22.68
2017-08-23T12:05:45.548Z,22.49
2017-08-23T12:08:13.382Z,22.64
2017-08-23T12:10:41.189Z,23.09
2017-08-23T12:13:09.095Z,23.13
2017-08-23T12:15:36.908Z,23.31
2017-08-23T12:18:04.804Z,23.57
2017-08-23T12:20:32.649Z,23.58
2017-08-23T12:23:00.431Z,23.22
2017-08-23T12:25:28.154Z,23.37
2017-08-23T12:27:56.091Z,23.64
2017-08-23T12:30:23.836Z,23.91
2017-08-23T12:32:51.685Z,23.72
2017-08-23T12:35:19.443Z,23.97
2017-08-23T12:37:47.206Z,23.92
2017-08-23T12:40:15.051Z,23.85
2017-08-23T12:42:42.813Z,23.53
2017-08-23T12:45:10.766Z,23.61
2017-08-23T12:47:38.570Z,23.70
2017-08-23T12:50:06.443Z,23.65
2017-08-23T12:52:34.179Z,23.83
2017-08-23T12:55:02.096Z,24.03
2017-08-23T12:57:29.831Z,24.16
2017-08-23T12:59:57.649Z,24.36
2017-08-23T13:02:25.386Z,24.39
2017-08-23T13:04:53.182Z,24.25
2017-08-23T13:07:20.907Z,24.23
2017-08-23T13:09:48.732Z,24.09
2017-08-23T13:12:16.495Z,24.03
2017-08-23T13:14:44.217Z,24.02
2017-08-23T13:17:12.076Z,23.96
2017-08-23T13:19:39.871Z,24.14
2017-08-23T13:22:07.707Z,24.29
2017-08-23T13:24:35.478Z,23.76
2017-08-23T13:27:03.357Z,23.42
2017-08-23T13:29:31.116Z,23.60
2017-08-23T13:31:59.053Z,23.45
2017-08-23T13:34:26.885Z,23.38
2017-08-23T13:36:54.774Z,23.61
2017-08-23T13:39:22.571Z,23.93
2017-08-23T13:41:50.455Z,23.71
2017-08-23T13:44:18.287Z,23.39
2017-08-23T13:46:46.058Z,23.40
2017-08-23T13:49:13.891Z,23.61
2017-08-23T13:51:41.755Z,23.80
2017-08-23T13:54:09.633Z,23.40
2017-08-23T13:56:37.452Z,23.24
2017-08-23T13:59:05.322Z,23.31
2017-08-23T14:01:33.163Z,23.36
2017-08-23T14:04:01.017Z,23.19
2017-08-23T14:06:28.872Z,23.27
2017-08-23T14:08:56.712Z,23.27
2017-08-23T14:11:24.534Z,22.91
2017-08-23T14:13:52.398Z,22.70
2017-08-23T14:16:20.194Z,22.77
2017-08-23T14:18:48.044Z,22.64
2017-08-23T14:21:15.827Z,22.69
2017-08-23T14:23:43.668Z,22.52
2017-08-23T14:26:11.470Z,22.36
2017-08-23T14:28:39.303Z,22.23
2017-08-23T14:31:07.152Z,22.29
2017-08-23T14:33:34.887Z,22.57
2017-08-23T14:36:02.776Z,22.87
2017-08-23T14:38:30.611Z,23.13
2017-08-23T14:40:58.397Z,23.09
2017-08-23T14:43:26.117Z,23.18
2017-08-23T14:45:53.934Z,23.31
2017-08-23T14:48:21.638Z,23.37
2017-08-23T14:50:49.420Z,23.27
2017-08-23T14:53:17.159Z,23.10
2017-08-23T14:55:46.744Z,23.04
2017-08-23T14:58:14.522Z,22.95
2017-08-23T15:00:42.267Z,23.04
2017-08-23T15:03:10.069Z,23.13
2017-08-23T15:05:37.941Z,23.18
2017-08-23T15:08:05.748Z,23.18
2017-08-23T15:10:33.539Z,23.18
2017-08-23T15:13:01.340Z,23.04
2017-08-23T15:15:29.162Z,22.98
2017-08-23T15:17:57.034Z,22.55
2017-08-23T15:20:24.874Z,22.48
2017-08-23T15:23:00.662Z,22.44
2017-08-23T15:25:28.490Z,22.54
2017-08-23T15:27:56.345Z,22.45
2017-08-23T15:30:24.161Z,22.60
2017-08-23T15:32:52.043Z,22.60
2017-08-23T15:35:19.901Z,22.39
2017-08-23T15:37:47.803Z,22.49
2017-08-23T15:40:15.658Z,22.50
2017-08-23T15:42:43.555Z,22.57
2017-08-23T15:45:11.402Z,22.63
2017-08-23T15:47:39.296Z,22.67
2017-08-23T15:50:07.121Z,22.36
2017-08-23T15:52:35.020Z,22.12
2017-08-23T15:55:02.845Z,22.22
2017-08-23T15:57:30.728Z,22.26
2017-08-23T15:59:58.550Z,22.31
2017-08-23T16:02:26.368Z,22.31
2017-08-23T16:04:54.260Z,22.24
2017-08-23T16:07:22.133Z,22.30
2017-08-23T16:09:50.060Z,22.36
2017-08-23T16:12:17.897Z,22.41
2017-08-23T16:14:45.733Z,22.39
2017-08-23T16:17:13.536Z,22.37
2017-08-23T16:19:41.380Z,22.29
2017-08-23T16:22:09.201Z,22.26
2017-08-23T16:24:37.072Z,22.27
2017-08-23T16:27:05.412Z,22.26
2017-08-23T16:29:33.264Z,22.20
2017-08-23T16:32:01.025Z,22.12
2017-08-23T16:34:35.474Z,22.09
2017-08-23T16:37:03.286Z,21.74
2017-08-23T16:39:31.191Z,21.65
2017-08-23T16:41:59.090Z,21.47
2017-08-23T16:44:26.939Z,21.48
2017-08-23T16:46:54.847Z,21.50
2017-08-23T16:49:22.649Z,21.57
2017-08-23T16:51:50.558Z,21.46
2017-08-23T16:54:18.300Z,21.30
2017-08-23T16:56:46.130Z,21.14
2017-08-23T16:59:13.952Z,21.06
2017-08-23T17:01:41.845Z,20.98
2017-08-23T17:04:09.670Z,20.88
2017-08-23T17:06:37.456Z,20.80
2017-08-23T17:09:05.322Z,20.76
2017-08-23T17:11:33.243Z,20.74
2017-08-23T17:14:01.073Z,20.74
2017-08-23T17:16:28.946Z,20.73
2017-08-23T17:18:56.842Z,20.64
2017-08-23T17:21:24.684Z,20.45
2017-08-23T17:23:52.593Z,20.25
2017-08-23T17:26:20.458Z,20.08
2017-08-23T17:28:48.333Z,19.94
2017-08-23T17:31:16.052Z,19.79
2017-08-23T17:33:43.920Z,19.67
2017-08-23T17:36:11.765Z,19.53
2017-08-23T17:38:39.713Z,19.41
2017-08-23T17:41:07.559Z,19.26
2017-08-23T17:43:35.478Z,19.07
2017-08-23T17:46:03.341Z,18.85
2017-08-23T17:48:31.153Z,18.62
2017-08-23T17:50:59.007Z,18.36
2017-08-23T17:53:26.798Z,18.10
2017-08-23T17:55:55.255Z,17.85
2017-08-23T17:58:25.223Z,17.62
2017-08-23T18:00:53.269Z,17.44
2017-08-23T18:03:21.423Z,17.30
2017-08-23T18:05:49.217Z,17.16
2017-08-23T18:08:16.967Z,17.01
2017-08-23T18:10:44.788Z,16.87
2017-08-23T18:13:12.689Z,16.74
2017-08-23T18:15:40.492Z,16.58
2017-08-23T18:18:08.352Z,16.44
2017-08-23T18:20:36.175Z,16.30
2017-08-23T18:23:03.929Z,16.17
2017-08-23T18:25:31.739Z,16.04
2017-08-23T18:27:59.550Z,15.91
2017-08-23T18:30:27.318Z,15.80
2017-08-23T18:32:55.075Z,15.67
2017-08-23T18:35:22.991Z,15.57
2017-08-23T18:37:50.771Z,15.47
2017-08-23T18:40:19.813Z,15.34
2017-08-23T18:42:47.930Z,15.17
2017-08-23T18:45:15.667Z,15.01
2017-08-23T18:47:43.417Z,14.94
2017-08-23T18:50:11.223Z,14.89
2017-08-23T18:52:39.027Z,14.80
2017-08-23T18:55:06.801Z,14.71
2017-08-23T18:57:34.665Z,14.66
2017-08-23T19:00:02.424Z,14.60
2017-08-23T19:02:30.200Z,14.56
2017-08-23T19:04:57.944Z,14.51
2017-08-23T19:07:25.721Z,14.46
2017-08-23T19:09:53.483Z,14.36
2017-08-23T19:12:21.429Z,14.29
2017-08-23T19:14:49.182Z,14.20
2017-08-23T19:17:16.974Z,14.13
2017-08-23T19:19:44.747Z,14.09
2017-08-23T19:22:12.528Z,14.04
2017-08-23T19:24:40.342Z,14.00
2017-08-23T19:27:08.140Z,13.98
2017-08-23T19:29:35.935Z,13.91
2017-08-23T19:32:03.783Z,13.84
2017-08-23T19:34:31.598Z,13.79
2017-08-23T19:36:59.444Z,13.69
2017-08-23T19:39:27.244Z,13.61
2017-08-23T19:41:55.096Z,13.57
2017-08-23T19:44:22.909Z,13.54
2017-08-23T19:46:50.645Z,13.50
2017-08-23T19:49:18.509Z,13.40
2017-08-23T19:51:46.327Z,13.36
2017-08-23T19:54:14.233Z,13.30
2017-08-23T19:56:42.033Z,13.22
2017-08-23T19:59:09.902Z,13.16
2017-08-23T20:01:37.713Z,13.04
2017-08-23T20:04:05.526Z,12.96
2017-08-23T20:06:33.385Z,12.89
2017-08-23T20:09:01.239Z,12.86
2017-08-23T20:11:29.125Z,12.84
2017-08-23T20:13:56.971Z,12.81
2017-08-23T20:16:24.827Z,12.66
2017-08-23T20:18:52.574Z,12.58
2017-08-23T20:21:20.483Z,12.49
2017-08-23T20:23:48.315Z,12.49
2017-08-23T20:26:16.204Z,12.49
2017-08-23T20:28:43.965Z,12.45
2017-08-23T20:31:11.911Z,12.48
2017-08-23T20:33:39.663Z,12.49
2017-08-23T20:36:07.565Z,12.49
2017-08-23T20:38:35.358Z,12.50
2017-08-23T20:41:03.255Z,12.50
2017-08-23T20:43:30.976Z,12.43
2017-08-23T20:45:58.868Z,12.38
2017-08-23T20:48:26.748Z,12.34
2017-08-23T20:50:54.633Z,12.36
2017-08-23T20:53:22.440Z,12.37
2017-08-23T20:55:50.232Z,12.33
2017-08-23T20:58:18.106Z,12.33
2017-08-23T21:00:46.009Z,12.28
2017-08-23T21:03:13.876Z,12.25
2017-08-23T21:05:41.693Z,12.12
2017-08-23T21:08:09.510Z,12.11
2017-08-23T21:10:37.345Z,12.10
2017-08-23T21:13:05.122Z,12.10
2017-08-23T21:15:32.943Z,12.12
2017-08-23T21:18:00.807Z,12.10
2017-08-23T21:20:28.661Z,12.08
2017-08-23T21:22:56.538Z,12.05
2017-08-23T21:25:24.317Z,12.02
2017-08-23T21:27:52.159Z,11.98
2017-08-23T21:30:19.993Z,11.86
2017-08-23T21:32:47.888Z,11.83
2017-08-23T21:35:15.779Z,11.82
2017-08-23T21:37:43.578Z,11.77
2017-08-23T21:40:11.442Z,11.74
2017-08-23T21:42:39.210Z,11.72
2017-08-23T21:45:07.070Z,11.68
2017-08-23T21:47:34.887Z,11.69
2017-08-23T21:50:02.768Z,11.65
2017-08-23T21:52:30.593Z,11.53
2017-08-23T21:54:58.445Z,11.53
2017-08-23T21:57:26.266Z,11.53
2017-08-23T21:59:54.043Z,11.48
2017-08-23T22:02:21.848Z,11.47
2017-08-23T22:04:49.729Z,11.47
2017-08-23T22:07:17.539Z,11.47
2017-08-23T22:09:45.478Z,11.47
2017-08-23T22:12:13.330Z,11.45
2017-08-23T22:14:41.150Z,11.45
2017-08-23T22:17:09.039Z,11.44
2017-08-23T22:19:36.801Z,11.41
2017-08-23T22:22:04.616Z,11.40
2017-08-23T22:24:32.492Z,11.36
2017-08-23T22:27:00.332Z,11.28
2017-08-23T22:29:28.124Z,11.25
2017-08-23T22:31:56.060Z,11.28
2017-08-23T22:34:23.835Z,11.23
2017-08-23T22:36:51.657Z,11.20
2017-08-23T22:39:19.446Z,11.20
2017-08-23T22:41:47.258Z,11.20
2017-08-23T22:44:15.083Z,11.19
2017-08-23T22:46:42.808Z,11.17
2017-08-23T22:49:10.628Z,11.13
2017-08-23T22:51:38.462Z,11.11
2017-08-23T22:54:06.209Z,11.09
2017-08-23T22:56:33.919Z,11.04
2017-08-23T22:59:01.689Z,11.00
2017-08-23T23:01:29.471Z,10.98
2017-08-23T23:03:57.331Z,10.95
2017-08-23T23:06:25.039Z,10.92
2017-08-23T23:08:52.856Z,10.83
2017-08-23T23:11:20.651Z,10.80
2017-08-23T23:13:48.475Z,10.79
2017-08-23T23:16:16.268Z,10.79
2017-08-23T23:18:44.102Z,10.78
2017-08-23T23:21:11.931Z,10.81
2017-08-23T23:23:39.716Z,10.79
2017-08-23T23:26:07.565Z,10.68
2017-08-23T23:28:35.363Z,10.74
2017-08-23T23:31:03.118Z,10.81
2017-08-23T23:33:30.950Z,10.74
2017-08-23T23:35:58.781Z,10.67
2017-08-23T23:38:26.576Z,10.68
2017-08-23T23:40:54.411Z,10.67
2017-08-23T23:43:22.200Z,10.61
2017-08-23T23:45:49.944Z,10.58
2017-08-23T23:48:17.720Z,10.55
2017-08-23T23:50:45.584Z,10.55
2017-08-23T23:53:13.368Z,10.56
2017-08-23T23:55:41.200Z,10.56
2017-08-23T23:58:08.988Z,10.56
